createdAt,value
2022-08-30T00:00:46.589Z,65.87
2022-08-30T00:05:49.696Z,66.31
2022-08-30T00:10:54.552Z,66.56
2022-08-30T00:15:57.603Z,66.53
2022-08-30T00:21:00.946Z,66.95
2022-08-30T00:26:06.067Z,66.79
2022-08-30T00:31:09.168Z,67.33
2022-08-30T00:36:11.981Z,67.72
2022-08-30T00:41:16.135Z,67.59
2022-08-30T00:46:19.423Z,67.74
2022-08-30T00:51:24.236Z,68.20
2022-08-30T00:56:29.925Z,68.35
2022-08-30T01:01:34.361Z,68.46
2022-08-30T01:06:39.899Z,68.66
2022-08-30T01:11:45.280Z,68.57
2022-08-30T01:16:48.737Z,68.92
2022-08-30T01:21:56.816Z,69.02
2022-08-30T01:27:01.130Z,69.05
2022-08-30T01:32:06.379Z,69.60
2022-08-30T01:37:09.255Z,69.24
2022-08-30T01:42:13.488Z,69.22
2022-08-30T01:47:18.169Z,69.58
2022-08-30T01:52:21.000Z,69.97
2022-08-30T01:57:26.851Z,70.31
2022-08-30T02:02:30.989Z,70.87
2022-08-30T02:07:33.885Z,70.61
2022-08-30T02:12:38.315Z,70.63
2022-08-30T02:17:42.513Z,70.83
2022-08-30T02:22:48.165Z,71.40
2022-08-30T02:27:53.729Z,71.20
2022-08-30T02:32:57.720Z,71.33
2022-08-30T02:38:00.624Z,71.26
2022-08-30T02:43:04.969Z,71.79
2022-08-30T02:48:07.779Z,72.17
2022-08-30T02:53:10.905Z,72.04
2022-08-30T02:58:20.360Z,72.55
2022-08-30T03:03:23.806Z,72.16
2022-08-30T03:08:26.912Z,71.82
2022-08-30T03:13:31.371Z,71.97
2022-08-30T03:18:34.547Z,72.08
2022-08-30T03:23:37.376Z,72.34
2022-08-30T03:28:42.633Z,72.39
2022-08-30T03:33:45.439Z,72.96
2022-08-30T03:38:48.440Z,73.32
2022-08-30T03:43:52.665Z,73.19
2022-08-30T03:49:02.638Z,73.92
2022-08-30T03:54:05.588Z,73.53
2022-08-30T03:59:10.013Z,73.66
2022-08-30T04:04:16.297Z,73.59
2022-08-30T04:09:21.532Z,73.46
2022-08-30T04:14:25.698Z,73.57
2022-08-30T04:19:28.611Z,73.23
2022-08-30T04:24:31.424Z,73.30
2022-08-30T04:29:36.434Z,73.42
2022-08-30T04:34:39.296Z,73.48
2022-08-30T04:39:42.696Z,73.55
2022-08-30T04:44:46.913Z,73.62
2022-08-30T04:49:49.779Z,72.76
2022-08-30T04:54:55.783Z,72.31
2022-08-30T04:59:59.959Z,72.08
2022-08-30T05:05:20.671Z,71.66
2022-08-30T05:10:23.684Z,71.72
2022-08-30T05:15:27.896Z,71.26
2022-08-30T05:20:31.132Z,71.75
2022-08-30T05:25:37.775Z,71.64
2022-08-30T05:30:42.269Z,72.25
2022-08-30T05:35:45.053Z,72.32
2022-08-30T05:40:47.844Z,72.98
2022-08-30T05:45:59.755Z,72.98
2022-08-30T05:51:05.131Z,73.07
2022-08-30T05:56:10.377Z,72.91
2022-08-30T06:01:26.371Z,72.83
2022-08-30T06:06:30.301Z,73.06
2022-08-30T06:11:33.258Z,73.26
2022-08-30T06:16:39.765Z,73.57
2022-08-30T06:21:44.052Z,72.69
2022-08-30T06:26:48.086Z,72.18
2022-08-30T06:31:52.577Z,72.15
2022-08-30T06:36:55.467Z,71.46
2022-08-30T06:41:58.275Z,70.78
2022-08-30T06:47:05.913Z,70.00
2022-08-30T06:52:08.744Z,70.22
2022-08-30T06:57:13.852Z,70.50
2022-08-30T07:02:18.123Z,69.57
2022-08-30T07:07:21.043Z,68.34
2022-08-30T07:12:23.849Z,66.99
2022-08-30T07:17:45.619Z,66.44
2022-08-30T07:22:48.638Z,66.80
2022-08-30T07:27:51.972Z,66.18
2022-08-30T07:32:56.137Z,64.80
2022-08-30T07:37:59.456Z,63.35
2022-08-30T07:43:02.381Z,61.61
2022-08-30T07:48:07.332Z,60.41
2022-08-30T07:53:11.311Z,58.14
2022-08-30T07:58:14.891Z,56.72
2022-08-30T08:03:19.307Z,56.86
2022-08-30T08:08:22.825Z,57.51
2022-08-30T08:13:28.049Z,58.22
2022-08-30T08:18:36.877Z,58.25
2022-08-30T08:23:39.712Z,54.43
2022-08-30T08:28:43.038Z,51.75
2022-08-30T08:33:47.564Z,50.27
2022-08-30T08:38:50.444Z,51.07
2022-08-30T08:43:53.259Z,50.78
2022-08-30T08:49:02.501Z,49.54
2022-08-30T08:54:09.528Z,48.63
2022-08-30T08:59:13.177Z,47.64
2022-08-30T09:04:21.225Z,47.50
2022-08-30T09:09:30.609Z,47.87
2022-08-30T09:14:38.832Z,47.51
2022-08-30T09:19:45.366Z,46.50
2022-08-30T09:24:50.367Z,46.44
2022-08-30T09:30:01.059Z,46.90
2022-08-30T09:35:08.603Z,45.58
2022-08-30T09:40:18.340Z,44.18
2022-08-30T09:45:32.948Z,44.03
2022-08-30T09:50:38.144Z,43.78
2022-08-30T09:55:57.293Z,42.56
2022-08-30T10:01:11.135Z,43.25
2022-08-30T10:06:28.904Z,44.04
2022-08-30T10:11:40.313Z,43.94
2022-08-30T10:16:51.308Z,43.95
2022-08-30T10:22:02.401Z,43.02
2022-08-30T10:27:10.128Z,42.40
2022-08-30T10:32:21.366Z,41.40
2022-08-30T10:37:28.002Z,41.12
2022-08-30T10:42:39.844Z,40.19
2022-08-30T10:47:45.773Z,39.40
2022-08-30T10:52:57.372Z,39.52
2022-08-30T10:58:01.776Z,38.00
2022-08-30T11:03:42.695Z,35.75
2022-08-30T11:09:02.433Z,34.13
2022-08-30T11:14:07.937Z,34.88
2022-08-30T11:19:18.889Z,32.69
2022-08-30T11:24:25.726Z,31.69
2022-08-30T11:29:36.146Z,32.81
2022-08-30T11:35:00.355Z,32.27
2022-08-30T11:40:14.260Z,31.68
2022-08-30T11:45:52.294Z,30.90
2022-08-30T11:51:01.432Z,30.67
2022-08-30T11:56:12.365Z,31.39
2022-08-30T12:01:50.142Z,30.22
2022-08-30T12:06:59.953Z,30.47
2022-08-30T12:12:06.494Z,32.35
2022-08-30T12:17:36.285Z,34.05
2022-08-30T12:22:40.558Z,35.12
2022-08-30T12:27:44.846Z,34.86
2022-08-30T12:32:50.890Z,37.25
2022-08-30T12:38:00.763Z,32.57
2022-08-30T12:43:06.798Z,30.46
2022-08-30T12:48:15.194Z,27.81
2022-08-30T12:53:27.820Z,27.26
2022-08-30T12:58:39.123Z,26.45
2022-08-30T13:03:42.080Z,28.42
2022-08-30T13:08:53.222Z,28.41
2022-08-30T13:14:19.342Z,29.98
2022-08-30T13:19:37.650Z,29.80
2022-08-30T13:24:40.444Z,30.74
2022-08-30T13:29:44.594Z,30.67
2022-08-30T13:34:48.926Z,31.81
2022-08-30T13:39:51.725Z,34.00
2022-08-30T13:44:54.617Z,33.14
2022-08-30T13:49:58.884Z,31.59
2022-08-30T13:55:01.756Z,31.15
2022-08-30T14:00:12.044Z,32.17
2022-08-30T14:05:46.665Z,31.67
2022-08-30T14:10:46.889Z,31.93
2022-08-30T14:16:26.615Z,32.98
2022-08-30T14:21:16.017Z,33.65
2022-08-30T14:26:22.212Z,32.59
2022-08-30T14:31:25.808Z,32.06
2022-08-30T14:36:30.426Z,32.62
2022-08-30T14:41:33.759Z,31.75
2022-08-30T14:46:37.533Z,29.87
2022-08-30T14:51:42.767Z,31.86
2022-08-30T14:56:45.715Z,30.67
2022-08-30T15:01:48.668Z,32.19
2022-08-30T15:06:53.137Z,34.22
2022-08-30T15:11:58.755Z,33.65
2022-08-30T15:17:03.227Z,32.27
2022-08-30T15:22:09.106Z,31.76
2022-08-30T15:27:12.411Z,31.81
2022-08-30T15:32:15.223Z,31.97
2022-08-30T15:37:22.405Z,31.59
2022-08-30T15:42:25.268Z,32.17
2022-08-30T15:47:28.108Z,31.48
2022-08-30T15:52:32.658Z,31.60
2022-08-30T15:57:35.433Z,31.17
2022-08-30T16:02:38.977Z,31.41
2022-08-30T16:07:45.667Z,31.08
2022-08-30T16:12:48.449Z,30.70
2022-08-30T16:17:51.259Z,31.48
2022-08-30T16:22:55.433Z,31.22
2022-08-30T16:27:58.357Z,31.52
2022-08-30T16:33:01.153Z,31.17
2022-08-30T16:38:05.327Z,31.17
2022-08-30T16:43:08.196Z,31.52
2022-08-30T16:48:11.865Z,32.51
2022-08-30T16:53:16.214Z,33.79
2022-08-30T16:58:20.873Z,33.50
2022-08-30T17:03:25.171Z,32.74
2022-08-30T17:08:29.437Z,32.45
2022-08-30T17:13:34.029Z,33.33
2022-08-30T17:18:38.401Z,33.63
2022-08-30T17:23:42.774Z,34.49
2022-08-30T17:28:47.851Z,35.66
2022-08-30T17:33:50.711Z,35.87
2022-08-30T17:38:54.890Z,36.81
2022-08-30T17:43:57.830Z,37.59
2022-08-30T17:49:01.284Z,37.51
2022-08-30T17:54:06.180Z,38.05
2022-08-30T17:59:10.872Z,37.77
2022-08-30T18:04:19.759Z,38.64
2022-08-30T18:09:25.316Z,38.95
2022-08-30T18:14:28.125Z,39.44
2022-08-30T18:19:32.089Z,40.10
2022-08-30T18:24:36.493Z,40.54
2022-08-30T18:29:39.359Z,40.84
2022-08-30T18:34:42.914Z,41.25
2022-08-30T18:39:48.346Z,41.18
2022-08-30T18:44:53.414Z,42.12
2022-08-30T18:49:56.289Z,43.14
2022-08-30T18:55:00.459Z,44.20
2022-08-30T19:00:04.515Z,45.50
2022-08-30T19:05:08.567Z,46.73
2022-08-30T19:10:14.632Z,47.39
2022-08-30T19:15:17.762Z,48.11
2022-08-30T19:20:23.097Z,48.77
2022-08-30T19:25:27.647Z,49.38
2022-08-30T19:30:31.791Z,49.88
2022-08-30T19:35:34.596Z,50.62
2022-08-30T19:40:38.973Z,51.20
2022-08-30T19:45:41.855Z,51.50
2022-08-30T19:50:44.680Z,51.80
2022-08-30T19:55:49.026Z,52.05
2022-08-30T20:01:10.726Z,52.33
2022-08-30T20:06:16.101Z,52.80
2022-08-30T20:11:21.441Z,52.92
2022-08-30T20:16:31.016Z,53.15
2022-08-30T20:21:50.063Z,53.57
2022-08-30T20:26:54.513Z,53.72
2022-08-30T20:31:57.508Z,53.77
2022-08-30T20:37:00.397Z,53.91
2022-08-30T20:42:04.744Z,54.06
2022-08-30T20:47:07.737Z,54.24
2022-08-30T20:52:10.662Z,54.44
2022-08-30T20:57:14.912Z,54.82
2022-08-30T21:02:17.833Z,54.85
2022-08-30T21:07:20.688Z,55.13
2022-08-30T21:12:25.145Z,55.63
2022-08-30T21:17:30.142Z,55.70
2022-08-30T21:22:32.929Z,55.83
2022-08-30T21:27:37.109Z,56.02
2022-08-30T21:32:39.960Z,56.11
2022-08-30T21:37:42.760Z,56.03
2022-08-30T21:42:49.744Z,56.04
2022-08-30T21:47:52.669Z,56.12
2022-08-30T21:52:55.568Z,56.17
2022-08-30T21:57:59.757Z,56.41
2022-08-30T22:03:02.581Z,56.18
2022-08-30T22:08:05.413Z,56.19
2022-08-30T22:13:12.845Z,56.44
2022-08-30T22:18:16.391Z,56.43
2022-08-30T22:23:21.022Z,56.37
2022-08-30T22:28:25.469Z,56.46
2022-08-30T22:33:28.484Z,56.27
2022-08-30T22:38:31.321Z,56.09
2022-08-30T22:43:35.600Z,56.24
2022-08-30T22:48:40.751Z,56.40
2022-08-30T22:53:45.059Z,56.80
2022-08-30T22:58:49.769Z,57.57
2022-08-30T23:03:53.490Z,57.82
2022-08-30T23:08:56.293Z,58.06
2022-08-30T23:14:00.596Z,58.41
2022-08-30T23:19:03.519Z,58.74
2022-08-30T23:24:24.454Z,58.26
2022-08-30T23:29:46.451Z,58.33
2022-08-30T23:35:07.042Z,58.24
2022-08-30T23:40:28.924Z,58.39
2022-08-30T23:45:50.475Z,57.98
2022-08-30T23:51:10.705Z,57.77
2022-08-30T23:56:42.389Z,57.00
